createdAt,value
2018-09-15T00:00:32.444Z,14.52
2018-09-15T00:01:42.558Z,14.5
2018-09-15T00:02:52.661Z,14.39
2018-09-15T00:04:02.564Z,14.37
2018-09-15T00:05:12.136Z,14.37
2018-09-15T00:06:21.985Z,14.32
2018-09-15T00:07:31.832Z,14.35
2018-09-15T00:08:41.428Z,14.22
2018-09-15T00:09:51.008Z,14.22
2018-09-15T00:11:00.858Z,14.27
2018-09-15T00:12:10.436Z,14.21
2018-09-15T00:13:26.298Z,14.21
2018-09-15T00:14:35.870Z,14.17
2018-09-15T00:15:45.496Z,14.2
2018-09-15T00:16:55.339Z,14.15
2018-09-15T00:18:04.911Z,14.09
2018-09-15T00:19:14.756Z,14.06
2018-09-15T00:20:24.336Z,14.15
2018-09-15T00:21:33.909Z,14.02
2018-09-15T00:22:43.753Z,14.06
2018-09-15T00:23:53.610Z,14.02
2018-09-15T00:25:02.644Z,14.07
2018-09-15T00:26:12.244Z,13.97
2018-09-15T00:27:22.121Z,14.02
2018-09-15T00:28:31.430Z,13.95
2018-09-15T00:29:41.552Z,14.04
2018-09-15T00:30:50.859Z,14
2018-09-15T00:32:00.434Z,13.96
2018-09-15T00:33:10.290Z,14.02
2018-09-15T00:34:20.182Z,13.95
2018-09-15T00:35:30.084Z,13.96
2018-09-15T00:36:39.936Z,13.97
2018-09-15T00:37:49.511Z,13.91
2018-09-15T00:38:59.527Z,13.91
2018-09-15T00:40:09.976Z,13.96
2018-09-15T00:41:19.877Z,13.79
2018-09-15T00:42:29.451Z,13.87
2018-09-15T00:43:39.428Z,13.88
2018-09-15T00:44:48.723Z,13.78
2018-09-15T00:45:58.667Z,13.79
2018-09-15T00:47:08.786Z,13.77
2018-09-15T00:48:18.141Z,13.79
2018-09-15T00:49:28.260Z,13.75
2018-09-15T00:50:37.831Z,13.78
2018-09-15T00:51:47.680Z,13.79
2018-09-15T00:52:57.808Z,13.81
2018-09-15T00:54:07.108Z,13.77
2018-09-15T00:55:16.686Z,13.7
2018-09-15T00:56:26.017Z,13.77
2018-09-15T00:57:35.889Z,13.71
2018-09-15T00:58:46.032Z,13.67
2018-09-15T00:59:56.173Z,13.63
2018-09-15T01:01:05.222Z,13.66
2018-09-15T01:02:15.340Z,13.63
2018-09-15T01:03:24.644Z,13.67
2018-09-15T01:04:34.774Z,13.63
2018-09-15T01:05:44.625Z,13.6
2018-09-15T01:06:54.734Z,13.52
2018-09-15T01:08:04.576Z,13.55
2018-09-15T01:09:14.162Z,13.6
2018-09-15T01:10:24.009Z,13.57
2018-09-15T01:11:33.617Z,13.55
2018-09-15T01:12:43.196Z,13.55
2018-09-15T01:13:52.854Z,13.57
2018-09-15T01:15:03.229Z,13.52
2018-09-15T01:16:13.346Z,13.59
2018-09-15T01:17:22.921Z,13.54
2018-09-15T01:18:32.493Z,13.57
2018-09-15T01:19:42.068Z,13.59
2018-09-15T01:20:52.537Z,13.39
2018-09-15T01:22:02.595Z,13.48
2018-09-15T01:23:12.444Z,13.49
2018-09-15T01:24:22.284Z,13.59
2018-09-15T01:25:31.858Z,13.62
2018-09-15T01:26:41.456Z,13.51
2018-09-15T01:27:51.025Z,13.51
2018-09-15T01:29:00.866Z,13.46
2018-09-15T01:30:10.441Z,13.52
2018-09-15T01:31:20.306Z,13.49
2018-09-15T01:32:29.884Z,13.48
2018-09-15T01:33:39.726Z,13.41
2018-09-15T01:34:49.031Z,13.44
2018-09-15T01:35:59.145Z,13.48
2018-09-15T01:37:08.715Z,13.45
2018-09-15T01:38:18.286Z,13.42
2018-09-15T01:39:27.588Z,13.48
2018-09-15T01:40:37.428Z,13.45
2018-09-15T01:41:46.998Z,13.51
2018-09-15T01:42:56.572Z,13.41
2018-09-15T01:44:06.149Z,13.39
2018-09-15T01:45:16.272Z,13.44
2018-09-15T01:46:26.390Z,13.33
2018-09-15T01:47:36.228Z,13.3
2018-09-15T01:48:45.800Z,13.39
2018-09-15T01:49:55.425Z,13.25
2018-09-15T01:51:05.544Z,13.32
2018-09-15T01:52:15.381Z,13.38
2018-09-15T01:53:25.486Z,13.3
2018-09-15T01:54:35.335Z,13.32
2018-09-15T01:55:45.351Z,13.32
2018-09-15T01:56:54.908Z,13.38
2018-09-15T01:58:04.754Z,13.38
2018-09-15T01:59:14.072Z,13.32
2018-09-15T02:00:23.371Z,13.32
2018-09-15T02:01:32.675Z,13.29
2018-09-15T02:02:42.791Z,13.25
2018-09-15T02:03:52.648Z,13.26
2018-09-15T02:05:02.490Z,13.28
2018-09-15T02:06:12.330Z,13.28
2018-09-15T02:07:21.958Z,13.25
2018-09-15T02:08:31.539Z,13.14
2018-09-15T02:09:41.651Z,13.26
2018-09-15T02:10:51.220Z,13.15
2018-09-15T02:12:01.062Z,13.2
2018-09-15T02:13:10.091Z,13.17
2018-09-15T02:14:19.933Z,13.01
2018-09-15T02:15:30.044Z,13.04
2018-09-15T02:16:40.160Z,13.1
2018-09-15T02:17:50.310Z,13.08
2018-09-15T02:18:59.879Z,13.07
2018-09-15T02:20:09.446Z,13
2018-09-15T02:21:19.015Z,13.03
2018-09-15T02:22:28.956Z,13.03
2018-09-15T02:23:39.035Z,12.97
2018-09-15T02:24:48.656Z,13.08
2018-09-15T02:25:58.764Z,13.08
2018-09-15T02:27:08.608Z,13.03
2018-09-15T02:28:18.724Z,13.03
2018-09-15T02:29:28.574Z,13.01
2018-09-15T02:30:38.684Z,13.01
2018-09-15T02:31:48.799Z,13.01
2018-09-15T02:32:58.638Z,13
2018-09-15T02:34:08.492Z,12.97
2018-09-15T02:35:18.378Z,12.95
2018-09-15T02:36:28.275Z,12.92
2018-09-15T02:37:38.393Z,12.87
2018-09-15T02:38:48.505Z,12.89
2018-09-15T02:39:58.347Z,12.86
2018-09-15T02:41:08.693Z,12.95
2018-09-15T02:42:18.833Z,12.92
2018-09-15T02:43:28.402Z,12.9
2018-09-15T02:44:37.714Z,12.79
2018-09-15T02:45:47.313Z,12.79
2018-09-15T02:46:57.204Z,12.85
2018-09-15T02:48:07.074Z,12.72
2018-09-15T02:49:16.914Z,12.77
2018-09-15T02:50:27.055Z,12.79
2018-09-15T02:51:36.621Z,12.68
2018-09-15T02:52:46.460Z,12.77
2018-09-15T02:53:56.581Z,12.67
2018-09-15T02:55:06.165Z,12.7
2018-09-15T02:56:16.001Z,12.65
2018-09-15T02:57:25.571Z,12.68
2018-09-15T02:58:35.417Z,12.68
2018-09-15T02:59:45.260Z,12.71
2018-09-15T03:00:54.023Z,12.72
2018-09-15T03:02:03.321Z,12.71
2018-09-15T03:03:13.172Z,12.72
2018-09-15T03:04:23.298Z,12.67
2018-09-15T03:05:32.882Z,12.67
2018-09-15T03:06:42.185Z,12.57
2018-09-15T03:07:51.484Z,12.67
2018-09-15T03:09:01.598Z,12.65
2018-09-15T03:10:11.708Z,12.53
2018-09-15T03:11:21.038Z,12.53
2018-09-15T03:12:30.619Z,12.53
2018-09-15T03:13:40.971Z,12.54
2018-09-15T03:14:50.562Z,12.65
2018-09-15T03:16:00.139Z,12.56
2018-09-15T03:17:09.983Z,12.62
2018-09-15T03:18:20.090Z,12.54
2018-09-15T03:19:30.209Z,12.56
2018-09-15T03:20:39.516Z,12.54
2018-09-15T03:21:49.365Z,12.54
2018-09-15T03:22:59.476Z,12.5
2018-09-15T03:24:09.055Z,12.47
2018-09-15T03:25:18.915Z,12.49
2018-09-15T03:26:28.770Z,12.46
2018-09-15T03:27:38.624Z,12.49
2018-09-15T03:28:48.467Z,12.5
2018-09-15T03:29:58.579Z,12.5
2018-09-15T03:31:08.695Z,12.5
2018-09-15T03:32:18.857Z,12.52
2018-09-15T03:33:28.713Z,12.47
2018-09-15T03:34:38.066Z,12.49
2018-09-15T03:35:47.649Z,12.53
2018-09-15T03:36:57.222Z,12.5
2018-09-15T03:38:07.061Z,12.39
2018-09-15T03:39:16.628Z,12.45
2018-09-15T03:40:26.739Z,12.42
2018-09-15T03:41:37.000Z,12.38
2018-09-15T03:42:47.071Z,12.35
2018-09-15T03:43:56.643Z,12.37
2018-09-15T03:45:06.498Z,12.41
2018-09-15T03:46:16.342Z,12.42
2018-09-15T03:47:26.189Z,12.49
2018-09-15T03:48:36.030Z,12.42
2018-09-15T03:49:45.649Z,12.42
2018-09-15T03:50:55.756Z,12.37
2018-09-15T03:52:05.883Z,12.35
2018-09-15T03:53:15.763Z,12.39
2018-09-15T03:54:25.628Z,12.35
2018-09-15T03:55:35.218Z,12.35
2018-09-15T03:56:45.321Z,12.38
2018-09-15T03:57:55.435Z,12.41
2018-09-15T03:59:05.282Z,12.35
2018-09-15T04:00:14.854Z,12.39
2018-09-15T04:01:24.971Z,12.41
2018-09-15T04:02:34.562Z,12.41
2018-09-15T04:03:44.399Z,12.39
2018-09-15T04:04:53.974Z,12.39
2018-09-15T04:06:03.542Z,12.45
2018-09-15T04:07:13.658Z,12.41
2018-09-15T04:08:23.231Z,12.47
2018-09-15T04:09:32.806Z,12.35
2018-09-15T04:10:42.660Z,12.39
2018-09-15T04:11:52.580Z,12.37
2018-09-15T04:13:02.428Z,12.39
2018-09-15T04:14:12.551Z,12.35
2018-09-15T04:15:22.152Z,12.39
2018-09-15T04:16:32.024Z,12.38
2018-09-15T04:17:42.139Z,12.35
2018-09-15T04:18:52.295Z,12.37
2018-09-15T04:20:01.875Z,12.41
2018-09-15T04:21:11.208Z,12.45
2018-09-15T04:22:21.081Z,12.34
2018-09-15T04:23:30.662Z,12.35
2018-09-15T04:24:40.509Z,12.38
2018-09-15T04:25:50.644Z,12.35
2018-09-15T04:27:00.793Z,12.39
2018-09-15T04:28:10.903Z,12.45
2018-09-15T04:29:20.803Z,12.45
2018-09-15T04:30:30.647Z,12.46
2018-09-15T04:31:40.757Z,12.42
2018-09-15T04:32:50.615Z,12.39
2018-09-15T04:34:00.195Z,12.5
2018-09-15T04:35:09.775Z,12.49
2018-09-15T04:36:19.081Z,12.47
2018-09-15T04:37:28.922Z,12.5
2018-09-15T04:38:38.498Z,12.53
2018-09-15T04:39:48.348Z,12.59
2018-09-15T04:40:58.191Z,12.57
2018-09-15T04:42:08.313Z,12.57
2018-09-15T04:43:17.670Z,12.7
2018-09-15T04:44:27.783Z,12.52
2018-09-15T04:45:37.373Z,12.56
2018-09-15T04:46:47.209Z,12.57
2018-09-15T04:47:56.778Z,12.59
2018-09-15T04:49:06.621Z,12.6
2018-09-15T04:50:16.489Z,12.53
2018-09-15T04:51:26.065Z,12.56
2018-09-15T04:52:35.942Z,12.57
2018-09-15T04:53:45.582Z,12.6
2018-09-15T04:54:55.417Z,12.53
2018-09-15T04:56:04.995Z,12.6
2018-09-15T04:57:14.841Z,12.53
2018-09-15T04:58:24.977Z,12.59
2018-09-15T04:59:35.144Z,12.67
2018-09-15T05:00:44.995Z,12.68
2018-09-15T05:01:55.132Z,12.67
2018-09-15T05:03:04.721Z,12.71
2018-09-15T05:04:14.569Z,12.71
2018-09-15T05:05:24.413Z,12.7
2018-09-15T05:06:34.703Z,12.74
2018-09-15T05:07:45.189Z,12.74
2018-09-15T05:08:55.295Z,12.67
2018-09-15T05:10:04.865Z,12.77
2018-09-15T05:11:15.001Z,12.79
2018-09-15T05:12:24.726Z,12.75
2018-09-15T05:13:35.018Z,12.78
2018-09-15T05:14:44.594Z,12.77
2018-09-15T05:15:54.714Z,12.85
2018-09-15T05:17:04.561Z,12.92
2018-09-15T05:18:14.423Z,12.82
2018-09-15T05:19:24.268Z,12.79
2018-09-15T05:20:34.140Z,12.89
2018-09-15T05:21:43.977Z,12.9
2018-09-15T05:22:53.549Z,12.87
2018-09-15T05:24:03.699Z,12.93
2018-09-15T05:25:13.270Z,12.85
2018-09-15T05:26:23.117Z,12.89
2018-09-15T05:27:32.691Z,12.95
2018-09-15T05:28:42.530Z,12.95
2018-09-15T05:29:51.826Z,12.97
2018-09-15T05:31:01.133Z,13
2018-09-15T05:32:10.715Z,12.97
2018-09-15T05:33:19.744Z,13
2018-09-15T05:34:29.048Z,13.03
2018-09-15T05:35:38.632Z,13.05
2018-09-15T05:36:48.202Z,13.05
2018-09-15T05:37:58.312Z,13
2018-09-15T05:39:07.880Z,13.11
2018-09-15T05:40:16.909Z,13.05
2018-09-15T05:41:27.018Z,13.04
2018-09-15T05:42:36.858Z,13.03
2018-09-15T05:43:46.430Z,13.08
2018-09-15T05:44:56.551Z,13.15
2018-09-15T05:46:06.394Z,13.17
2018-09-15T05:47:16.237Z,13.14
2018-09-15T05:48:25.811Z,13.2
2018-09-15T05:49:35.839Z,13.14
2018-09-15T05:50:45.791Z,13.28
2018-09-15T05:51:55.628Z,13.15
2018-09-15T05:53:05.470Z,13.29
2018-09-15T05:54:15.046Z,13.29
2018-09-15T05:55:24.352Z,13.22
2018-09-15T05:56:34.189Z,13.28
2018-09-15T05:57:44.305Z,13.29
2018-09-15T05:58:53.875Z,13.38
2018-09-15T06:00:03.986Z,13.36
2018-09-15T06:01:13.557Z,13.29
2018-09-15T06:02:23.127Z,13.41
2018-09-15T06:03:32.969Z,13.38
2018-09-15T06:04:42.281Z,13.36
2018-09-15T06:05:52.139Z,13.32
2018-09-15T06:07:02.029Z,13.38
2018-09-15T06:08:11.881Z,13.32
2018-09-15T06:09:21.729Z,13.49
2018-09-15T06:10:31.884Z,13.42
2018-09-15T06:11:41.727Z,13.42
2018-09-15T06:12:51.309Z,13.48
2018-09-15T06:14:01.158Z,13.46
2018-09-15T06:15:11.001Z,13.52
2018-09-15T06:16:21.138Z,13.48
2018-09-15T06:17:31.022Z,13.62
2018-09-15T06:18:41.205Z,13.49
2018-09-15T06:19:50.774Z,13.55
2018-09-15T06:21:00.124Z,13.51
2018-09-15T06:22:09.730Z,13.59
2018-09-15T06:23:19.604Z,13.52
2018-09-15T06:24:28.693Z,13.38
2018-09-15T06:25:38.478Z,13.62
2018-09-15T06:26:48.332Z,13.45
2018-09-15T06:27:58.449Z,13.49
2018-09-15T06:29:08.571Z,13.52
2018-09-15T06:30:18.213Z,13.54
2018-09-15T06:31:28.059Z,13.52
2018-09-15T06:32:37.638Z,13.55
2018-09-15T06:33:46.943Z,13.59
2018-09-15T06:34:56.244Z,13.6
2018-09-15T06:36:06.091Z,13.59
2018-09-15T06:37:15.937Z,13.67
2018-09-15T06:38:25.835Z,13.64
2018-09-15T06:39:35.950Z,13.73
2018-09-15T06:40:45.807Z,13.75
2018-09-15T06:41:55.109Z,13.77
2018-09-15T06:43:05.228Z,13.71
2018-09-15T06:44:15.348Z,13.77
2018-09-15T06:45:25.058Z,13.78
2018-09-15T06:46:35.044Z,13.71
2018-09-15T06:47:44.405Z,13.75
2018-09-15T06:48:54.388Z,13.77
2018-09-15T06:50:03.934Z,13.78
2018-09-15T06:51:13.765Z,13.81
2018-09-15T06:52:23.424Z,13.82
2018-09-15T06:53:33.267Z,13.88
2018-09-15T06:54:42.872Z,13.96
2018-09-15T06:55:52.711Z,13.95
2018-09-15T06:57:02.570Z,14
2018-09-15T06:58:11.891Z,14.03
2018-09-15T06:59:21.452Z,14.02
2018-09-15T07:00:31.288Z,14.04
2018-09-15T07:01:40.867Z,14.03
2018-09-15T07:02:50.985Z,14.15
2018-09-15T07:04:00.571Z,14.1
2018-09-15T07:05:10.416Z,14.18
2018-09-15T07:06:20.263Z,14.22
2018-09-15T07:07:29.835Z,14.25
2018-09-15T07:08:39.136Z,14.25
2018-09-15T07:09:48.436Z,14.32
2018-09-15T07:10:58.321Z,14.32
2018-09-15T07:12:08.170Z,14.5
2018-09-15T07:13:18.017Z,14.37
2018-09-15T07:14:27.588Z,14.45
2018-09-15T07:15:37.435Z,14.42
2018-09-15T07:16:47.007Z,14.52
2018-09-15T07:17:56.357Z,14.54
2018-09-15T07:19:06.214Z,14.52
2018-09-15T07:20:15.938Z,14.61
2018-09-15T07:21:25.218Z,14.52
2018-09-15T07:22:34.791Z,14.51
2018-09-15T07:23:44.091Z,14.62
2018-09-15T07:24:53.661Z,14.52
2018-09-15T07:26:04.280Z,14.6
2018-09-15T07:27:13.549Z,14.68
2018-09-15T07:28:22.859Z,14.61
2018-09-15T07:29:32.160Z,14.77
2018-09-15T07:30:41.975Z,14.73
2018-09-15T07:31:52.238Z,14.69
2018-09-15T07:33:02.578Z,14.69
2018-09-15T07:34:12.179Z,14.83
2018-09-15T07:35:21.786Z,14.77
2018-09-15T07:36:31.629Z,14.89
2018-09-15T07:37:42.079Z,14.89
2018-09-15T07:38:52.146Z,15.01
2018-09-15T07:40:02.042Z,14.98
2018-09-15T07:41:11.613Z,14.98
2018-09-15T07:42:21.733Z,14.96
2018-09-15T07:43:31.304Z,15.1
2018-09-15T07:44:41.285Z,15.14
2018-09-15T07:45:51.011Z,15.16
2018-09-15T07:47:00.043Z,15.11
2018-09-15T07:48:09.889Z,15.1
2018-09-15T07:49:19.741Z,15.27
2018-09-15T07:50:29.040Z,15.31
2018-09-15T07:51:39.140Z,15.28
2018-09-15T07:52:48.659Z,15.28
2018-09-15T07:53:57.967Z,15.21
2018-09-15T07:55:08.137Z,15.21
2018-09-15T07:56:18.257Z,15.27
2018-09-15T07:57:28.395Z,15.29
2018-09-15T07:58:38.895Z,15.29
2018-09-15T07:59:48.746Z,15.29
2018-09-15T08:00:58.862Z,15.41
2018-09-15T08:02:08.671Z,15.35
2018-09-15T08:03:18.524Z,15.35
2018-09-15T08:04:27.551Z,15.46
2018-09-15T08:05:37.387Z,15.35
2018-09-15T08:06:47.504Z,15.49
2018-09-15T08:07:57.076Z,15.51
2018-09-15T08:09:06.650Z,15.53
2018-09-15T08:10:15.952Z,15.51
2018-09-15T08:11:25.536Z,15.56
2018-09-15T08:12:35.109Z,15.65
2018-09-15T08:13:45.224Z,15.62
2018-09-15T08:14:55.083Z,15.64
2018-09-15T08:16:04.656Z,15.67
2018-09-15T08:17:13.959Z,15.83
2018-09-15T08:18:23.811Z,15.78
2018-09-15T08:19:33.127Z,15.74
2018-09-15T08:20:43.434Z,15.76
2018-09-15T08:21:53.466Z,15.74
2018-09-15T08:23:03.316Z,15.86
2018-09-15T08:24:12.894Z,15.84
2018-09-15T08:25:23.016Z,15.94
2018-09-15T08:26:33.047Z,15.92
2018-09-15T08:27:43.486Z,15.94
2018-09-15T08:28:53.709Z,16.01
2018-09-15T08:30:03.285Z,16.01
2018-09-15T08:31:13.123Z,15.93
2018-09-15T08:32:22.991Z,16.01
2018-09-15T08:33:32.832Z,15.96
2018-09-15T08:34:42.412Z,16.04
2018-09-15T08:35:51.988Z,15.96
2018-09-15T08:37:02.107Z,16.04
2018-09-15T08:38:11.769Z,16.05
2018-09-15T08:39:21.647Z,16.09
2018-09-15T08:40:31.497Z,16.11
2018-09-15T08:41:41.323Z,16.14
2018-09-15T08:42:50.897Z,16.15
2018-09-15T08:44:00.203Z,16.02
2018-09-15T08:45:09.785Z,16.11
2018-09-15T08:46:19.625Z,16.12
2018-09-15T08:47:29.447Z,16.17
2018-09-15T08:48:39.298Z,16.14
2018-09-15T08:49:48.876Z,16.17
2018-09-15T08:50:58.182Z,16.14
2018-09-15T08:52:07.492Z,16.12
2018-09-15T08:53:16.847Z,16.17
2018-09-15T08:54:26.707Z,16.23
2018-09-15T08:55:36.817Z,16.24
2018-09-15T08:56:46.657Z,16.25
2018-09-15T08:57:56.499Z,16.33
2018-09-15T08:59:06.344Z,16.33
2018-09-15T09:00:15.376Z,16.31
2018-09-15T09:01:24.679Z,16.27
2018-09-15T09:02:34.254Z,16.24
2018-09-15T09:03:44.307Z,16.33
2018-09-15T09:04:54.736Z,16.33
2018-09-15T09:06:03.794Z,16.27
2018-09-15T09:07:13.648Z,16.12
2018-09-15T09:08:23.762Z,16.02
2018-09-15T09:09:33.071Z,16.02
2018-09-15T09:10:42.373Z,16.02
2018-09-15T09:11:52.215Z,16.02
2018-09-15T09:13:01.791Z,16.04
2018-09-15T09:14:11.362Z,16.15
2018-09-15T09:15:21.474Z,16.21
2018-09-15T09:16:31.098Z,16.08
2018-09-15T09:17:40.407Z,16.09
2018-09-15T09:18:50.519Z,16.21
2018-09-15T09:20:00.412Z,16.34
2018-09-15T09:21:10.164Z,16.39
2018-09-15T09:22:19.738Z,16.41
2018-09-15T09:23:29.584Z,16.39
2018-09-15T09:24:38.895Z,16.45
2018-09-15T09:25:48.944Z,16.49
2018-09-15T09:26:58.882Z,16.5
2018-09-15T09:28:08.724Z,16.5
2018-09-15T09:29:18.837Z,16.49
2018-09-15T09:30:28.136Z,16.46
2018-09-15T09:31:38.306Z,16.57
2018-09-15T09:32:48.150Z,16.66
2018-09-15T09:33:57.737Z,16.53
2018-09-15T09:35:07.583Z,16.5
2018-09-15T09:36:17.164Z,16.64
2018-09-15T09:37:26.466Z,16.61
2018-09-15T09:38:36.050Z,16.71
2018-09-15T09:39:45.896Z,16.73
2018-09-15T09:40:56.007Z,16.71
2018-09-15T09:42:05.605Z,16.67
2018-09-15T09:43:15.172Z,16.76
2018-09-15T09:44:25.013Z,16.67
2018-09-15T09:45:34.593Z,16.71
2018-09-15T09:46:44.161Z,16.7
2018-09-15T09:47:54.239Z,16.83
2018-09-15T09:49:04.339Z,16.75
2018-09-15T09:50:14.195Z,16.75
2018-09-15T09:51:23.496Z,16.89
2018-09-15T09:52:33.069Z,16.82
2018-09-15T09:53:43.175Z,16.89
2018-09-15T09:54:53.018Z,16.78
2018-09-15T09:56:02.623Z,16.79
2018-09-15T09:57:12.793Z,16.68
2018-09-15T09:58:22.369Z,16.7
2018-09-15T09:59:32.478Z,16.7
2018-09-15T10:00:42.344Z,16.78
2018-09-15T10:01:51.921Z,16.76
2018-09-15T10:03:01.766Z,16.81
2018-09-15T10:04:10.801Z,16.82
2018-09-15T10:05:20.650Z,16.85
2018-09-15T10:06:30.254Z,16.88
2018-09-15T10:07:40.135Z,16.96
2018-09-15T10:08:50.081Z,17.01
2018-09-15T10:09:59.930Z,17.03
2018-09-15T10:11:10.103Z,17.01
2018-09-15T10:12:19.430Z,16.98
2018-09-15T10:13:29.540Z,17.08
2018-09-15T10:14:38.846Z,17.16
2018-09-15T10:15:48.795Z,17.14
2018-09-15T10:16:58.553Z,17.23
2018-09-15T10:18:08.432Z,17.33
2018-09-15T10:19:17.732Z,17.48
2018-09-15T10:20:27.302Z,17.56
2018-09-15T10:21:37.105Z,17.54
2018-09-15T10:22:47.167Z,17.64
2018-09-15T10:23:56.984Z,17.7
2018-09-15T10:25:06.572Z,17.7
2018-09-15T10:26:16.147Z,17.55
2018-09-15T10:27:25.456Z,17.56
2018-09-15T10:28:35.038Z,17.68
2018-09-15T10:29:45.148Z,17.7
2018-09-15T10:30:55.479Z,17.59
2018-09-15T10:32:04.956Z,17.64
2018-09-15T10:33:14.953Z,17.7
2018-09-15T10:34:24.544Z,17.66
2018-09-15T10:35:34.122Z,17.63
2018-09-15T10:36:43.724Z,17.82
2018-09-15T10:37:53.344Z,17.78
2018-09-15T10:39:02.918Z,17.77
2018-09-15T10:40:11.956Z,17.71
2018-09-15T10:41:22.091Z,17.66
2018-09-15T10:42:31.986Z,17.52
2018-09-15T10:43:42.105Z,17.71
2018-09-15T10:44:51.681Z,17.58
2018-09-15T10:46:02.086Z,17.52
2018-09-15T10:47:12.352Z,17.59
2018-09-15T10:48:22.473Z,17.62
2018-09-15T10:49:32.324Z,17.59
2018-09-15T10:50:41.901Z,17.64
2018-09-15T10:51:51.779Z,17.62
2018-09-15T10:53:01.353Z,17.68
2018-09-15T10:54:10.388Z,17.74
2018-09-15T10:55:20.268Z,17.72
2018-09-15T10:56:29.572Z,17.92
2018-09-15T10:57:38.874Z,17.9
2018-09-15T10:58:48.726Z,18.02
2018-09-15T10:59:58.665Z,18.18
2018-09-15T11:01:08.564Z,18.14
2018-09-15T11:02:18.413Z,18.18
2018-09-15T11:03:27.987Z,18.25
2018-09-15T11:04:37.562Z,18.32
2018-09-15T11:05:47.235Z,18.45
2018-09-15T11:06:57.409Z,18.52
2018-09-15T11:08:08.012Z,18.48
2018-09-15T11:09:17.854Z,18.55
2018-09-15T11:10:27.976Z,18.51
2018-09-15T11:11:38.123Z,18.55
2018-09-15T11:12:48.005Z,18.55
2018-09-15T11:13:57.588Z,18.57
2018-09-15T11:15:06.617Z,18.57
2018-09-15T11:16:16.460Z,18.58
2018-09-15T11:17:26.038Z,18.62
2018-09-15T11:18:35.887Z,18.54
2018-09-15T11:19:45.462Z,18.6
2018-09-15T11:20:55.047Z,18.67
2018-09-15T11:22:05.161Z,18.67
2018-09-15T11:23:14.469Z,18.65
2018-09-15T11:24:24.042Z,18.81
2018-09-15T11:25:33.628Z,18.66
2018-09-15T11:26:43.202Z,18.67
2018-09-15T11:27:52.520Z,18.78
2018-09-15T11:29:02.742Z,18.75
2018-09-15T11:30:13.140Z,18.9
2018-09-15T11:31:23.014Z,18.88
2018-09-15T11:32:33.134Z,18.92
2018-09-15T11:33:42.443Z,18.82
2018-09-15T11:34:52.020Z,18.94
2018-09-15T11:36:01.872Z,18.82
2018-09-15T11:37:11.443Z,18.78
2018-09-15T11:38:21.562Z,18.76
2018-09-15T11:39:31.685Z,18.82
2018-09-15T11:40:41.530Z,18.82
2018-09-15T11:41:51.121Z,18.82
2018-09-15T11:43:00.725Z,18.87
2018-09-15T11:44:10.573Z,19.02
2018-09-15T11:45:19.878Z,19.02
2018-09-15T11:46:29.189Z,19.07
2018-09-15T11:47:39.385Z,19.11
2018-09-15T11:48:49.555Z,19.21
2018-09-15T11:49:59.161Z,19.43
2018-09-15T11:51:08.471Z,19.54
2018-09-15T11:52:18.613Z,19.58
2018-09-15T11:53:28.249Z,19.51
2018-09-15T11:54:37.854Z,19.61
2018-09-15T11:55:48.004Z,19.48
2018-09-15T11:56:57.856Z,19.47
2018-09-15T11:58:07.984Z,19.41
2018-09-15T11:59:17.024Z,19.5
2018-09-15T12:00:26.873Z,19.5
2018-09-15T12:01:36.465Z,19.56
2018-09-15T12:02:46.611Z,19.54
2018-09-15T12:03:55.372Z,19.58
2018-09-15T12:05:05.213Z,19.65
2018-09-15T12:06:14.831Z,19.69
2018-09-15T12:07:24.951Z,19.8
2018-09-15T12:08:34.532Z,19.88
2018-09-15T12:09:44.384Z,19.94
2018-09-15T12:10:53.961Z,20.13
2018-09-15T12:12:03.546Z,20.14
2018-09-15T12:13:13.396Z,20.35
2018-09-15T12:14:23.702Z,20.41
2018-09-15T12:15:33.013Z,20.35
2018-09-15T12:16:42.052Z,20.38
2018-09-15T12:17:51.895Z,20.52
2018-09-15T12:19:01.736Z,20.48
2018-09-15T12:20:11.591Z,20.38
2018-09-15T12:21:21.884Z,20.18
2018-09-15T12:22:31.525Z,20.17
2018-09-15T12:23:41.645Z,20.14
2018-09-15T12:24:51.491Z,20.01
2018-09-15T12:26:01.341Z,19.99
2018-09-15T12:27:11.681Z,19.96
2018-09-15T12:28:21.832Z,20.03
2018-09-15T12:29:30.866Z,20.23
2018-09-15T12:30:40.725Z,20.21
2018-09-15T12:31:49.758Z,20.2
2018-09-15T12:32:59.948Z,20.32
2018-09-15T12:34:09.571Z,20.28
2018-09-15T12:35:19.447Z,20.31
2018-09-15T12:36:29.296Z,20.36
2018-09-15T12:37:38.636Z,20.39
2018-09-15T12:38:48.483Z,20.28
2018-09-15T12:39:58.079Z,20.29
2018-09-15T12:41:07.653Z,20.28
2018-09-15T12:42:17.012Z,20.36
2018-09-15T12:43:26.582Z,20.36
2018-09-15T12:44:36.695Z,20.29
2018-09-15T12:45:46.547Z,20.31
2018-09-15T12:46:55.852Z,20.2
2018-09-15T12:48:05.160Z,20.2
2018-09-15T12:49:15.206Z,20.11
2018-09-15T12:50:24.812Z,20.13
2018-09-15T12:51:34.665Z,20.1
2018-09-15T12:52:44.788Z,19.94
2018-09-15T12:53:54.361Z,19.96
2018-09-15T12:55:03.939Z,19.95
2018-09-15T12:56:13.787Z,19.92
2018-09-15T12:57:23.909Z,19.76
2018-09-15T12:58:33.479Z,19.76
2018-09-15T12:59:43.337Z,19.68
2018-09-15T13:00:53.183Z,19.71
2018-09-15T13:02:03.087Z,19.71
2018-09-15T13:03:13.269Z,19.66
2018-09-15T13:04:22.030Z,19.58
2018-09-15T13:05:31.887Z,19.71
2018-09-15T13:06:42.009Z,19.61
2018-09-15T13:07:51.316Z,19.56
2018-09-15T13:09:01.489Z,19.47
2018-09-15T13:10:11.071Z,19.54
2018-09-15T13:11:20.639Z,19.54
2018-09-15T13:12:30.758Z,19.43
2018-09-15T13:13:40.874Z,19.51
2018-09-15T13:14:50.975Z,19.5
2018-09-15T13:16:00.646Z,19.48
2018-09-15T13:17:10.511Z,19.44
2018-09-15T13:18:20.626Z,19.4
2018-09-15T13:19:30.472Z,19.29
2018-09-15T13:20:39.771Z,19.26
2018-09-15T13:21:49.350Z,19.33
2018-09-15T13:22:59.194Z,19.16
2018-09-15T13:24:08.771Z,19.28
2018-09-15T13:25:18.895Z,19.16
2018-09-15T13:26:28.469Z,19.28
2018-09-15T13:27:37.773Z,19.29
2018-09-15T13:28:47.609Z,19.32
2018-09-15T13:29:57.940Z,19.43
2018-09-15T13:31:08.157Z,19.55
2018-09-15T13:32:17.732Z,19.58
2018-09-15T13:33:27.033Z,19.65
2018-09-15T13:34:37.151Z,19.68
2018-09-15T13:35:46.458Z,19.66
2018-09-15T13:36:56.341Z,19.77
2018-09-15T13:38:06.221Z,19.81
2018-09-15T13:39:16.065Z,19.81
2018-09-15T13:40:25.379Z,19.77
2018-09-15T13:41:35.229Z,19.73
2018-09-15T13:42:44.271Z,19.86
2018-09-15T13:43:54.417Z,19.83
2018-09-15T13:45:03.729Z,19.86
2018-09-15T13:46:13.324Z,20.11
2018-09-15T13:47:23.172Z,20.14
2018-09-15T13:48:33.034Z,20.2
2018-09-15T13:49:43.201Z,20.33
2018-09-15T13:50:53.252Z,20.33
2018-09-15T13:52:02.829Z,20.47
2018-09-15T13:53:12.242Z,20.64
2018-09-15T13:54:22.581Z,20.73
2018-09-15T13:55:32.800Z,20.88
2018-09-15T13:56:42.376Z,20.95
2018-09-15T13:57:52.224Z,20.79
2018-09-15T13:59:02.052Z,20.79
2018-09-15T14:00:12.176Z,20.76
2018-09-15T14:01:22.113Z,20.55
2018-09-15T14:02:31.696Z,20.7
2018-09-15T14:03:41.273Z,20.72
2018-09-15T14:04:51.658Z,20.67
2018-09-15T14:06:01.604Z,20.84
2018-09-15T14:07:11.183Z,20.92
2018-09-15T14:08:20.767Z,20.94
2018-09-15T14:09:30.082Z,20.79
2018-09-15T14:10:51.580Z,20.92
2018-09-15T14:12:01.819Z,20.73
2018-09-15T14:13:11.671Z,20.84
2018-09-15T14:14:21.519Z,20.7
2018-09-15T14:15:31.688Z,20.58
2018-09-15T14:16:41.768Z,20.55
2018-09-15T14:17:52.043Z,20.5
2018-09-15T14:19:01.895Z,20.55
2018-09-15T14:20:11.475Z,20.38
2018-09-15T14:21:21.334Z,20.26
2018-09-15T14:22:31.178Z,20.29
2018-09-15T14:23:41.027Z,20.29
2018-09-15T14:24:50.605Z,20.31
2018-09-15T14:26:00.723Z,20.26
2018-09-15T14:27:10.301Z,20.23
2018-09-15T14:28:20.279Z,20.16
2018-09-15T14:29:30.296Z,20.11
2018-09-15T14:30:40.654Z,20.18
2018-09-15T14:31:49.693Z,20.1
2018-09-15T14:32:59.541Z,20.11
2018-09-15T14:34:09.397Z,20.14
2018-09-15T14:35:18.972Z,20.02
2018-09-15T14:36:28.547Z,20.06
2018-09-15T14:37:38.396Z,19.96
2018-09-15T14:38:48.166Z,19.95
2018-09-15T14:39:57.720Z,19.88
2018-09-15T14:41:07.295Z,19.84
2018-09-15T14:42:17.203Z,19.88
2018-09-15T14:43:27.055Z,19.81
2018-09-15T14:44:36.630Z,19.69
2018-09-15T14:45:46.757Z,19.71
2018-09-15T14:46:56.072Z,19.73
2018-09-15T14:48:06.185Z,19.66
2018-09-15T14:49:15.599Z,19.66
2018-09-15T14:50:25.824Z,19.73
2018-09-15T14:51:35.759Z,19.61
2018-09-15T14:52:45.348Z,19.74
2018-09-15T14:53:55.462Z,19.58
2018-09-15T14:55:05.053Z,19.56
2018-09-15T14:56:15.342Z,19.46
2018-09-15T14:57:25.114Z,19.51
2018-09-15T14:58:34.961Z,19.48
2018-09-15T14:59:44.802Z,19.48
2018-09-15T15:00:54.855Z,19.37
2018-09-15T15:02:04.976Z,19.41